createdAt,value
2023-01-23T09:20:55.099Z,6.53
2023-01-23T09:22:57.839Z,6.80
2023-01-23T09:25:00.318Z,6.12
2023-01-23T09:27:02.828Z,7.57
2023-01-23T09:29:05.461Z,7.22
2023-01-23T09:31:10.951Z,6.40
2023-01-23T09:33:13.326Z,6.32
2023-01-23T09:35:15.993Z,7.43
2023-01-23T09:37:18.384Z,7.40
2023-01-23T09:39:21.123Z,5.85
2023-01-23T09:41:28.216Z,5.62
2023-01-23T09:44:00.734Z,6.45
2023-01-23T09:46:05.761Z,6.12
2023-01-23T09:48:17.592Z,6.25
2023-01-23T09:50:27.859Z,5.57
2023-01-23T09:52:42.502Z,5.40
2023-01-23T09:54:48.449Z,6.62
2023-01-23T09:56:52.503Z,6.05
2023-01-23T09:59:16.393Z,8.10
2023-01-23T10:01:19.041Z,5.93
2023-01-23T10:03:26.572Z,5.75
2023-01-23T10:05:35.385Z,6.00
2023-01-23T10:07:49.561Z,5.70
2023-01-23T10:10:00.829Z,5.68
2023-01-23T10:12:30.956Z,6.15
2023-01-23T10:14:57.919Z,6.70
2023-01-23T10:17:10.739Z,6.03
2023-01-23T10:19:34.771Z,6.50
2023-01-23T10:22:00.365Z,7.18
2023-01-23T10:24:05.714Z,7.75
2023-01-23T10:26:17.731Z,6.95
2023-01-23T10:28:39.427Z,6.85
2023-01-23T10:30:43.685Z,7.57
2023-01-23T10:32:59.851Z,6.97
2023-01-23T10:35:29.815Z,5.95
2023-01-23T10:38:01.627Z,6.62
2023-01-23T10:40:11.581Z,6.00
2023-01-23T10:42:14.305Z,6.60
2023-01-23T10:44:19.630Z,7.45
2023-01-23T10:46:30.617Z,6.15
2023-01-23T10:50:39.642Z,7.40
2023-01-23T10:52:46.368Z,5.80
2023-01-23T10:54:48.711Z,7.07
2023-01-23T10:57:22.273Z,4.32
2023-01-23T10:59:30.747Z,3.87
2023-01-23T11:01:36.503Z,5.53
2023-01-23T11:03:45.618Z,3.37
2023-01-23T11:06:01.630Z,2.95
2023-01-23T11:08:04.623Z,4.05
2023-01-23T11:10:10.076Z,4.53
2023-01-23T11:12:17.840Z,4.75
2023-01-23T11:14:24.119Z,4.00
2023-01-23T11:16:27.034Z,4.15
2023-01-23T11:18:34.284Z,3.70
2023-01-23T11:20:39.920Z,3.33
2023-01-23T11:22:43.711Z,5.05
2023-01-23T11:24:46.215Z,3.95
2023-01-23T11:26:58.868Z,3.75
2023-01-23T11:29:01.623Z,3.58
2023-01-23T11:31:15.879Z,3.62
2023-01-23T11:33:27.518Z,3.75
2023-01-23T11:35:39.901Z,5.00
2023-01-23T11:37:42.590Z,7.37
2023-01-23T11:40:00.677Z,3.97
2023-01-23T11:42:03.975Z,3.42
2023-01-23T11:44:16.789Z,3.20
2023-01-23T11:46:39.118Z,3.40
2023-01-23T11:51:12.955Z,2.60
2023-01-23T11:53:36.746Z,3.65
2023-01-23T11:56:09.427Z,4.70
2023-01-23T11:58:17.695Z,3.92
2023-01-23T12:00:27.061Z,4.28
2023-01-23T12:02:54.756Z,3.53
2023-01-23T12:05:08.512Z,6.07
2023-01-23T12:07:21.388Z,4.15
2023-01-23T12:09:29.593Z,3.37
2023-01-23T12:11:46.235Z,3.42
2023-01-23T12:14:03.588Z,5.35
2023-01-23T12:16:24.769Z,3.70
2023-01-23T12:18:56.842Z,4.18
2023-01-23T12:21:19.188Z,3.50
2023-01-23T12:23:53.336Z,3.55
2023-01-23T12:26:20.926Z,3.85
2023-01-23T12:28:42.491Z,3.03
2023-01-23T12:31:40.975Z,3.28
2023-01-23T12:34:14.244Z,3.33
2023-01-23T12:36:44.142Z,4.03
2023-01-23T12:39:39.737Z,3.75
2023-01-23T12:41:47.703Z,4.37
2023-01-23T12:43:57.447Z,3.37
2023-01-23T12:46:15.393Z,4.47
2023-01-23T12:48:52.240Z,10.70
2023-01-23T12:51:06.177Z,3.50
2023-01-23T12:53:14.285Z,4.22
2023-01-23T12:55:19.309Z,4.70
2023-01-23T12:57:52.797Z,3.90
2023-01-23T14:32:00.282Z,5.12
2023-01-23T14:34:19.032Z,5.18
2023-01-23T14:37:09.092Z,3.70
2023-01-23T14:39:30.091Z,4.30
2023-01-23T14:41:44.912Z,10.95
2023-01-23T14:44:15.812Z,3.53
2023-01-23T14:46:44.145Z,6.18
2023-01-23T14:48:54.038Z,4.32
2023-01-23T14:51:12.182Z,3.65
2023-01-23T14:53:18.723Z,3.65
2023-01-23T14:55:29.782Z,4.60
2023-01-23T14:57:33.770Z,4.60
2023-01-23T14:59:43.338Z,3.80
2023-01-23T15:02:20.637Z,5.93
2023-01-23T15:04:29.778Z,5.57
2023-01-23T15:06:47.273Z,5.62
2023-01-23T15:08:53.849Z,5.55
2023-01-23T15:11:08.217Z,5.07
2023-01-23T15:13:23.750Z,4.35
2023-01-23T15:16:03.775Z,4.00
2023-01-23T15:18:40.302Z,5.25
2023-01-23T15:20:58.543Z,4.62
2023-01-23T15:23:24.369Z,5.03
2023-01-23T15:25:30.822Z,5.72
2023-01-23T15:28:39.552Z,3.75
2023-01-23T15:30:50.291Z,4.55
2023-01-23T15:33:20.499Z,9.38
2023-01-23T15:35:27.405Z,5.45
2023-01-23T15:37:49.531Z,4.18
2023-01-23T15:40:03.094Z,4.68
2023-01-23T15:42:35.663Z,4.37
2023-01-23T15:45:02.663Z,4.47
2023-01-23T15:49:36.100Z,5.15
2023-01-23T15:51:44.333Z,8.25
2023-01-23T15:53:49.853Z,4.70
2023-01-23T15:55:56.217Z,5.47
2023-01-23T15:58:11.456Z,6.28
2023-01-23T16:00:25.751Z,5.25
2023-01-23T16:02:35.770Z,7.53
2023-01-23T16:04:46.171Z,9.27
2023-01-23T16:06:52.872Z,5.45
2023-01-23T16:09:05.487Z,7.15
2023-01-23T16:11:10.195Z,6.55
2023-01-23T16:13:17.288Z,6.53
2023-01-23T16:18:00.832Z,8.13
2023-01-23T16:20:18.825Z,6.68
2023-01-23T16:22:30.145Z,6.40
2023-01-23T16:24:56.601Z,8.00
2023-01-23T16:27:04.782Z,6.15
2023-01-23T16:29:21.357Z,5.18
2023-01-23T16:38:57.419Z,15.75
2023-01-23T16:41:05.560Z,6.22
2023-01-23T16:43:20.035Z,5.85
2023-01-23T16:45:29.211Z,7.40
2023-01-23T16:47:52.833Z,6.57
2023-01-23T16:49:56.772Z,7.00
2023-01-23T16:52:04.647Z,8.90
2023-01-23T16:56:44.821Z,7.68
2023-01-23T16:58:51.028Z,7.95
2023-01-23T17:01:05.140Z,7.68
2023-01-23T17:03:23.410Z,8.40
2023-01-23T17:05:30.697Z,6.95
2023-01-23T17:07:55.996Z,9.35
2023-01-23T17:10:37.855Z,9.07
2023-01-23T17:12:58.159Z,6.75
2023-01-23T17:15:22.861Z,7.75
2023-01-23T17:17:38.296Z,7.53
2023-01-23T17:19:47.631Z,8.18
2023-01-23T17:22:25.032Z,9.00
2023-01-23T17:24:29.820Z,7.60
2023-01-23T17:26:34.007Z,7.97
2023-01-23T17:31:00.799Z,8.48
2023-01-23T17:33:04.716Z,7.80
2023-01-23T17:35:31.214Z,8.45
2023-01-23T17:37:35.837Z,7.97
2023-01-23T17:39:39.460Z,9.02
2023-01-23T17:41:47.683Z,8.82
2023-01-23T17:44:09.988Z,8.15
2023-01-23T17:49:35.804Z,10.68
2023-01-23T17:54:46.263Z,9.40
2023-01-23T17:56:49.587Z,9.10
2023-01-23T17:58:52.397Z,8.90
2023-01-23T18:00:56.495Z,8.77
2023-01-23T18:03:03.591Z,8.68
2023-01-23T18:05:10.768Z,8.30
2023-01-23T18:07:14.142Z,9.98
2023-01-23T18:09:19.944Z,8.52
2023-01-23T18:11:24.831Z,8.20
2023-01-23T18:13:47.120Z,8.25
2023-01-23T18:16:13.703Z,9.35
2023-01-23T18:18:31.595Z,8.88
2023-01-23T18:20:55.433Z,8.95
2023-01-23T18:23:01.488Z,9.38
2023-01-23T18:25:15.121Z,8.55
2023-01-23T18:27:23.828Z,10.05
2023-01-23T18:30:03.876Z,7.90
2023-01-23T18:32:16.238Z,7.75
2023-01-23T18:34:56.854Z,7.57
2023-01-23T18:37:37.929Z,8.40
2023-01-23T18:40:03.070Z,8.25
2023-01-23T18:42:32.567Z,6.75
2023-01-23T18:44:38.306Z,8.27
2023-01-23T18:46:42.280Z,7.20
2023-01-23T18:48:48.577Z,7.55
2023-01-23T18:51:29.852Z,7.30
2023-01-23T18:53:56.143Z,7.95
2023-01-23T18:56:31.291Z,8.25
2023-01-23T18:59:10.950Z,7.30
2023-01-23T19:01:24.369Z,6.85
2023-01-23T19:03:55.708Z,7.57
2023-01-23T19:05:59.555Z,8.07
2023-01-23T19:08:03.816Z,7.40
2023-01-23T19:10:13.348Z,8.23
2023-01-23T19:12:31.325Z,8.30
2023-01-23T19:15:01.229Z,7.90
2023-01-23T19:17:21.783Z,8.38
2023-01-23T19:19:37.761Z,8.15
2023-01-23T19:21:46.897Z,7.75
2023-01-23T19:23:52.671Z,8.10
2023-01-23T19:25:56.269Z,7.70
2023-01-23T19:28:03.729Z,7.90
2023-01-23T19:30:08.381Z,8.45
2023-01-23T19:32:13.633Z,7.53
2023-01-23T19:34:23.963Z,7.97
2023-01-23T19:36:29.781Z,7.40
2023-01-23T19:38:34.310Z,7.97
2023-01-23T19:40:38.505Z,7.32
2023-01-23T19:42:54.143Z,7.95
2023-01-23T19:45:02.246Z,8.10
2023-01-23T19:47:07.355Z,8.55
2023-01-23T19:49:14.288Z,7.70
2023-01-23T19:51:19.685Z,8.15
2023-01-23T19:53:24.619Z,7.65
2023-01-23T19:55:34.952Z,9.10
2023-01-23T19:57:39.333Z,8.90
2023-01-23T19:59:43.397Z,8.43
2023-01-23T20:01:50.383Z,8.23
2023-01-23T20:03:54.550Z,8.68
2023-01-23T20:06:00.081Z,7.95
2023-01-23T20:08:05.118Z,8.60
2023-01-23T20:10:12.356Z,7.72
2023-01-23T20:12:16.233Z,8.27
2023-01-23T20:14:22.686Z,8.50
2023-01-23T20:16:26.911Z,10.88
2023-01-23T20:18:30.562Z,11.75
2023-01-23T20:20:33.943Z,10.00
2023-01-23T20:22:42.660Z,26.52
2023-01-23T20:24:46.147Z,12.95
2023-01-23T20:26:49.656Z,9.68
2023-01-23T20:28:54.677Z,9.13
2023-01-23T20:30:58.553Z,8.40
2023-01-23T20:33:01.763Z,8.27
2023-01-23T20:35:05.280Z,8.05
2023-01-23T20:37:08.909Z,8.10
2023-01-23T20:39:14.821Z,9.20
2023-01-23T20:41:22.699Z,8.48
2023-01-23T20:43:26.185Z,8.15
2023-01-23T20:45:29.395Z,8.55
2023-01-23T20:47:36.162Z,10.38
2023-01-23T20:49:39.375Z,11.05
2023-01-23T20:51:42.798Z,12.02
2023-01-23T20:53:46.336Z,12.93
2023-01-23T20:55:54.398Z,9.75
2023-01-23T20:58:16.282Z,15.60
2023-01-23T21:00:22.311Z,12.95
2023-01-23T21:02:29.596Z,10.77
2023-01-23T21:04:36.791Z,10.23
2023-01-23T21:06:40.670Z,9.50
2023-01-23T21:08:44.072Z,10.52
2023-01-23T21:10:48.450Z,9.70
2023-01-23T21:12:51.515Z,10.40
2023-01-23T21:14:54.102Z,9.80
2023-01-23T21:16:57.113Z,13.05
2023-01-23T21:19:02.413Z,10.48
2023-01-23T21:21:10.828Z,9.35
2023-01-23T21:23:13.519Z,10.65
2023-01-23T21:25:16.460Z,10.13
2023-01-23T21:27:20.376Z,10.13
2023-01-23T21:29:23.985Z,8.75
2023-01-23T21:31:29.637Z,9.15
2023-01-23T21:33:32.111Z,9.50
2023-01-23T21:35:34.862Z,9.32
2023-01-23T21:37:37.818Z,10.35
2023-01-23T21:39:40.309Z,9.35
2023-01-23T21:41:43.209Z,15.80
2023-01-23T21:43:46.359Z,16.62
2023-01-23T21:45:48.838Z,23.80
2023-01-23T21:47:51.138Z,8.95
2023-01-23T21:49:53.799Z,8.02
2023-01-23T21:51:56.163Z,9.25
2023-01-23T21:53:58.568Z,9.27
2023-01-23T21:56:01.277Z,10.93
2023-01-23T21:58:03.586Z,9.85
2023-01-23T22:00:24.986Z,8.57
2023-01-23T22:02:27.667Z,13.18
2023-01-23T22:04:30.120Z,10.27
2023-01-23T22:06:34.203Z,9.27
2023-01-23T22:08:36.873Z,10.23
2023-01-23T22:10:39.247Z,15.55
2023-01-23T22:12:41.592Z,22.87
2023-01-23T22:14:44.170Z,11.30
2023-01-23T22:16:49.853Z,11.80
2023-01-23T22:18:53.057Z,9.75
2023-01-23T22:20:57.620Z,9.00
2023-01-23T22:22:59.986Z,9.40
2023-01-23T22:25:02.412Z,12.85
2023-01-23T22:27:05.165Z,10.65
2023-01-23T22:29:08.576Z,10.77
2023-01-23T22:31:13.907Z,9.85
2023-01-23T22:33:17.725Z,13.18
2023-01-23T22:35:20.396Z,8.02
2023-01-23T22:37:22.854Z,9.27
2023-01-23T22:39:25.540Z,9.27
2023-01-23T22:41:28.666Z,9.32
2023-01-23T22:43:31.306Z,8.63
2023-01-23T22:45:34.229Z,8.82
2023-01-23T22:47:36.609Z,8.48
2023-01-23T22:49:40.055Z,9.88
2023-01-23T22:51:42.934Z,8.82
2023-01-23T22:53:45.317Z,9.20
2023-01-23T22:55:47.711Z,8.50
2023-01-23T22:57:52.832Z,9.95
2023-01-23T22:59:55.184Z,8.68
2023-01-23T23:01:57.552Z,8.52
2023-01-23T23:04:00.678Z,8.32
2023-01-23T23:06:06.193Z,8.70
2023-01-23T23:08:08.531Z,8.98
2023-01-23T23:10:12.095Z,9.70
2023-01-23T23:12:14.486Z,9.38
2023-01-23T23:14:17.689Z,9.85
2023-01-23T23:16:27.692Z,10.30
2023-01-23T23:18:30.335Z,9.70
2023-01-23T23:20:32.648Z,11.35
2023-01-23T23:22:35.265Z,12.68
2023-01-23T23:24:37.593Z,12.05
2023-01-23T23:26:40.210Z,11.85
2023-01-23T23:28:43.064Z,10.27
2023-01-23T23:30:45.408Z,11.57
2023-01-23T23:32:47.789Z,12.07
2023-01-23T23:34:50.437Z,12.48
2023-01-23T23:36:52.708Z,11.25
2023-01-23T23:38:55.129Z,11.98
2023-01-23T23:41:06.741Z,13.20
